createdAt,value
2022-12-02T00:01:40.228Z,5.34
2022-12-02T00:04:06.775Z,5.45
2022-12-02T00:06:33.282Z,5.27
2022-12-02T00:08:59.823Z,5.54
2022-12-02T00:11:26.195Z,5.47
2022-12-02T00:13:52.573Z,5.79
2022-12-02T00:16:18.998Z,5.41
2022-12-02T00:18:45.459Z,5.37
2022-12-02T00:21:11.831Z,5.30
2022-12-02T00:23:38.191Z,5.59
2022-12-02T00:26:04.620Z,5.33
2022-12-02T00:28:31.097Z,5.52
2022-12-02T00:30:57.467Z,5.32
2022-12-02T00:33:23.839Z,5.11
2022-12-02T00:35:50.248Z,5.13
2022-12-02T00:38:16.715Z,5.34
2022-12-02T00:40:43.136Z,5.00
2022-12-02T00:43:09.559Z,4.83
2022-12-02T00:45:35.956Z,4.83
2022-12-02T00:48:02.344Z,5.09
2022-12-02T00:50:28.814Z,5.23
2022-12-02T00:52:55.327Z,4.86
2022-12-02T00:55:21.732Z,4.94
2022-12-02T00:57:48.126Z,5.20
2022-12-02T01:00:14.485Z,4.98
2022-12-02T01:02:40.922Z,5.07
2022-12-02T01:05:07.321Z,4.85
2022-12-02T01:07:33.709Z,4.96
2022-12-02T01:10:00.115Z,4.94
2022-12-02T01:12:26.539Z,4.82
2022-12-02T01:14:53.156Z,4.76
2022-12-02T01:17:19.693Z,4.82
2022-12-02T01:19:46.069Z,4.86
2022-12-02T01:22:12.402Z,4.87
2022-12-02T01:24:38.777Z,5.12
2022-12-02T01:27:05.169Z,4.93
2022-12-02T01:29:31.535Z,4.71
2022-12-02T01:31:58.010Z,4.85
2022-12-02T01:34:24.443Z,4.61
2022-12-02T01:36:50.862Z,4.64
2022-12-02T01:39:17.262Z,4.62
2022-12-02T01:41:43.708Z,4.54
2022-12-02T01:44:10.106Z,4.79
2022-12-02T01:46:36.490Z,4.78
2022-12-02T01:49:02.910Z,4.72
2022-12-02T01:51:29.265Z,4.62
2022-12-02T01:53:55.615Z,4.58
2022-12-02T01:56:21.969Z,4.62
2022-12-02T01:58:48.366Z,4.64
2022-12-02T02:01:14.760Z,4.65
2022-12-02T02:03:41.229Z,4.54
2022-12-02T02:06:07.698Z,4.35
2022-12-02T02:08:34.133Z,4.40
2022-12-02T02:11:00.521Z,4.60
2022-12-02T02:13:26.904Z,4.56
2022-12-02T02:15:53.254Z,4.65
2022-12-02T02:18:19.633Z,4.68
2022-12-02T02:20:46.027Z,4.04
2022-12-02T02:23:12.391Z,4.33
2022-12-02T02:25:38.803Z,4.41
2022-12-02T02:28:05.242Z,4.33
2022-12-02T02:30:31.658Z,4.33
2022-12-02T02:32:58.113Z,4.40
2022-12-02T02:35:24.539Z,4.41
2022-12-02T02:37:50.985Z,4.44
2022-12-02T02:40:17.414Z,4.43
2022-12-02T02:42:43.801Z,4.49
2022-12-02T02:45:10.183Z,4.49
2022-12-02T02:47:36.811Z,4.07
2022-12-02T02:50:03.264Z,4.30
2022-12-02T02:52:29.628Z,4.27
2022-12-02T02:54:56.018Z,4.22
2022-12-02T02:57:22.430Z,4.34
2022-12-02T02:59:48.810Z,4.02
2022-12-02T03:02:15.228Z,4.37
2022-12-02T03:04:41.621Z,4.23
2022-12-02T03:07:07.993Z,3.83
2022-12-02T03:09:34.387Z,4.20
2022-12-02T03:12:00.797Z,4.41
2022-12-02T03:14:27.169Z,4.28
2022-12-02T03:16:53.584Z,4.26
2022-12-02T03:19:20.043Z,4.34
2022-12-02T03:21:46.494Z,4.54
2022-12-02T03:24:12.874Z,4.35
2022-12-02T03:26:39.263Z,3.95
2022-12-02T03:29:05.647Z,4.26
2022-12-02T03:31:32.128Z,4.38
2022-12-02T03:33:58.534Z,4.30
2022-12-02T03:36:24.924Z,4.33
2022-12-02T03:38:51.295Z,4.24
2022-12-02T03:41:17.696Z,4.07
2022-12-02T03:43:44.048Z,4.38
2022-12-02T03:46:10.473Z,4.20
2022-12-02T03:48:36.886Z,4.08
2022-12-02T03:51:03.264Z,4.15
2022-12-02T03:53:29.638Z,4.28
2022-12-02T03:55:56.011Z,4.04
2022-12-02T03:58:22.381Z,4.45
2022-12-02T04:00:48.818Z,4.27
2022-12-02T04:03:15.250Z,4.30
2022-12-02T04:05:47.874Z,4.34
2022-12-02T04:08:15.739Z,4.46
2022-12-02T04:10:42.243Z,4.40
2022-12-02T04:13:08.613Z,4.15
2022-12-02T04:15:35.040Z,4.38
2022-12-02T04:18:01.530Z,4.36
2022-12-02T04:20:27.931Z,4.15
2022-12-02T04:22:54.325Z,4.12
2022-12-02T04:25:20.698Z,4.19
2022-12-02T04:27:47.076Z,4.47
2022-12-02T04:30:13.533Z,4.47
2022-12-02T04:32:39.919Z,4.17
2022-12-02T04:35:06.454Z,4.57
2022-12-02T04:37:32.893Z,4.55
2022-12-02T04:39:59.311Z,4.69
2022-12-02T04:42:25.669Z,4.47
2022-12-02T04:44:52.399Z,4.21
2022-12-02T04:47:19.068Z,4.37
2022-12-02T04:49:45.433Z,4.53
2022-12-02T04:52:11.794Z,4.36
2022-12-02T04:54:38.162Z,4.57
2022-12-02T04:57:04.684Z,4.37
2022-12-02T04:59:31.069Z,4.41
2022-12-02T05:01:57.467Z,4.15
2022-12-02T05:04:23.918Z,4.46
2022-12-02T05:06:50.371Z,4.67
2022-12-02T05:09:16.763Z,4.14
2022-12-02T05:11:43.162Z,4.24
2022-12-02T05:14:09.523Z,4.27
2022-12-02T05:16:36.105Z,4.30
2022-12-02T05:19:02.681Z,4.39
2022-12-02T05:21:29.077Z,4.51
2022-12-02T05:23:55.477Z,4.38
2022-12-02T05:26:21.918Z,4.54
2022-12-02T05:28:48.313Z,4.35
2022-12-02T05:31:14.871Z,4.59
2022-12-02T05:33:41.373Z,4.65
2022-12-02T05:36:07.724Z,4.36
2022-12-02T05:38:34.107Z,4.41
2022-12-02T05:41:00.509Z,4.22
2022-12-02T05:43:27.004Z,4.18
2022-12-02T05:45:53.373Z,4.08
2022-12-02T05:48:19.762Z,4.32
2022-12-02T05:50:46.186Z,4.54
2022-12-02T05:53:12.552Z,4.48
2022-12-02T05:55:38.939Z,4.33
2022-12-02T05:58:05.317Z,4.42
2022-12-02T06:00:31.724Z,4.36
2022-12-02T06:02:58.447Z,4.26
2022-12-02T06:05:25.046Z,4.26
2022-12-02T06:07:51.462Z,4.28
2022-12-02T06:10:17.834Z,4.20
2022-12-02T06:12:44.243Z,4.35
2022-12-02T06:15:10.710Z,4.24
2022-12-02T06:17:37.086Z,4.20
2022-12-02T06:20:03.511Z,4.32
2022-12-02T06:22:29.906Z,4.13
2022-12-02T06:24:56.300Z,4.20
2022-12-02T06:27:22.729Z,4.40
2022-12-02T06:29:49.111Z,4.34
2022-12-02T06:32:15.547Z,4.39
2022-12-02T06:34:41.916Z,4.42
2022-12-02T06:37:08.317Z,4.65
2022-12-02T06:39:34.694Z,4.48
2022-12-02T06:42:01.070Z,4.58
2022-12-02T06:44:27.446Z,4.77
2022-12-02T06:46:53.960Z,4.62
2022-12-02T06:49:20.373Z,4.68
2022-12-02T06:51:46.724Z,4.37
2022-12-02T06:54:13.136Z,4.59
2022-12-02T06:56:39.611Z,5.09
2022-12-02T06:59:06.067Z,4.83
2022-12-02T07:01:32.560Z,4.89
2022-12-02T07:03:59.054Z,5.16
2022-12-02T07:06:25.449Z,5.14
2022-12-02T07:08:51.822Z,5.26
2022-12-02T07:11:18.206Z,5.66
2022-12-02T07:13:44.661Z,6.56
2022-12-02T07:16:11.148Z,6.30
2022-12-02T07:18:37.550Z,6.52
2022-12-02T07:21:03.994Z,6.60
2022-12-02T07:23:30.401Z,6.61
2022-12-02T07:25:56.760Z,6.50
2022-12-02T07:28:23.126Z,6.73
2022-12-02T07:30:49.572Z,6.34
2022-12-02T07:33:15.971Z,6.59
2022-12-02T07:35:42.326Z,6.82
2022-12-02T07:38:08.717Z,6.65
2022-12-02T07:40:35.090Z,7.01
2022-12-02T07:43:01.493Z,7.39
2022-12-02T07:45:27.875Z,6.69
2022-12-02T07:47:54.326Z,7.10
2022-12-02T07:50:20.905Z,7.35
2022-12-02T07:52:47.256Z,7.41
2022-12-02T07:55:13.625Z,7.27
2022-12-02T07:57:39.975Z,7.43
2022-12-02T08:00:06.428Z,7.49
2022-12-02T08:02:32.790Z,7.27
2022-12-02T08:04:59.221Z,7.53
2022-12-02T08:07:25.766Z,7.39
2022-12-02T08:09:52.265Z,7.53
2022-12-02T08:12:18.637Z,7.34
2022-12-02T08:14:45.040Z,7.72
2022-12-02T08:17:11.531Z,7.98
2022-12-02T08:19:38.039Z,7.33
2022-12-02T08:22:04.402Z,7.76
2022-12-02T08:24:30.776Z,7.17
2022-12-02T08:26:57.220Z,7.25
2022-12-02T08:29:23.581Z,7.50
2022-12-02T08:31:49.961Z,7.48
2022-12-02T08:34:16.314Z,7.42
2022-12-02T08:36:42.727Z,7.43
2022-12-02T08:39:09.147Z,7.34
2022-12-02T08:41:35.585Z,7.50
2022-12-02T08:44:01.962Z,7.78
2022-12-02T08:46:28.416Z,7.84
2022-12-02T08:48:54.823Z,7.17
2022-12-02T08:51:21.218Z,7.49
2022-12-02T08:53:47.584Z,7.60
2022-12-02T08:56:14.049Z,7.64
2022-12-02T08:58:40.446Z,7.47
2022-12-02T09:01:06.928Z,7.71
2022-12-02T09:03:33.345Z,7.96
2022-12-02T09:05:59.773Z,7.91
2022-12-02T09:08:26.225Z,7.34
2022-12-02T09:10:52.755Z,7.53
2022-12-02T09:13:19.174Z,7.78
2022-12-02T09:15:45.577Z,7.79
2022-12-02T09:18:14.519Z,7.39
2022-12-02T09:20:41.271Z,7.27
2022-12-02T09:23:07.641Z,7.80
2022-12-02T09:25:34.246Z,7.76
2022-12-02T09:28:00.630Z,7.29
2022-12-02T09:30:26.991Z,7.28
2022-12-02T09:32:53.486Z,7.40
2022-12-02T09:35:19.822Z,7.54
2022-12-02T09:37:46.296Z,7.68
2022-12-02T09:40:12.989Z,7.04
2022-12-02T09:42:39.433Z,7.44
2022-12-02T09:45:05.859Z,7.42
2022-12-02T09:47:32.210Z,7.39
2022-12-02T09:49:58.582Z,7.57
2022-12-02T09:52:26.272Z,7.75
2022-12-02T09:54:53.158Z,7.64
2022-12-02T09:57:19.694Z,7.61
2022-12-02T09:59:46.076Z,7.61
2022-12-02T10:02:12.544Z,7.74
2022-12-02T10:04:38.952Z,7.40
2022-12-02T10:07:05.394Z,7.36
2022-12-02T10:09:31.737Z,7.83
2022-12-02T10:11:58.082Z,7.22
2022-12-02T10:14:24.454Z,7.45
2022-12-02T10:16:50.805Z,7.34
2022-12-02T10:19:17.147Z,7.32
2022-12-02T10:21:43.601Z,7.43
2022-12-02T10:24:09.968Z,7.18
2022-12-02T10:26:36.341Z,7.55
2022-12-02T10:29:02.888Z,7.55
2022-12-02T10:31:29.302Z,7.34
2022-12-02T10:33:55.693Z,7.19
2022-12-02T10:36:22.123Z,6.93
2022-12-02T10:38:48.556Z,7.43
2022-12-02T10:41:15.007Z,7.48
2022-12-02T10:43:41.373Z,7.75
2022-12-02T10:46:07.803Z,7.42
2022-12-02T10:48:34.194Z,7.53
2022-12-02T10:51:00.576Z,7.20
2022-12-02T10:53:26.918Z,7.70
2022-12-02T10:55:53.291Z,7.59
2022-12-02T10:58:19.640Z,7.54
2022-12-02T11:00:46.094Z,7.15
2022-12-02T11:03:12.522Z,7.23
2022-12-02T11:05:38.889Z,7.39
2022-12-02T11:08:05.386Z,7.35
2022-12-02T11:10:31.814Z,7.46
2022-12-02T11:12:58.301Z,7.08
2022-12-02T11:15:24.654Z,7.27
2022-12-02T11:17:51.029Z,7.03
2022-12-02T11:20:17.447Z,7.07
2022-12-02T11:22:43.856Z,7.16
2022-12-02T11:25:10.195Z,7.07
2022-12-02T11:27:36.589Z,6.95
2022-12-02T11:30:02.988Z,7.17
2022-12-02T11:32:29.359Z,7.11
2022-12-02T11:37:42.113Z,6.83
2022-12-02T11:40:08.534Z,7.00
2022-12-02T11:42:34.896Z,6.97
2022-12-02T11:45:01.377Z,6.92
2022-12-02T11:47:27.773Z,6.81
2022-12-02T11:49:54.119Z,6.81
2022-12-02T11:52:20.536Z,6.83
2022-12-02T11:54:46.928Z,6.68
2022-12-02T11:57:13.295Z,6.66
2022-12-02T11:59:39.695Z,6.64
2022-12-02T12:02:06.125Z,6.54
2022-12-02T12:04:32.532Z,6.47
2022-12-02T12:06:58.897Z,6.34
2022-12-02T12:09:25.266Z,6.41
2022-12-02T12:11:51.654Z,6.54
2022-12-02T12:14:18.025Z,6.21
2022-12-02T12:16:44.436Z,6.53
2022-12-02T12:19:10.871Z,6.46
2022-12-02T12:21:37.269Z,6.56
2022-12-02T12:24:03.738Z,6.32
2022-12-02T12:26:30.119Z,6.23
2022-12-02T12:28:56.505Z,6.17
2022-12-02T12:31:22.908Z,6.37
2022-12-02T12:33:49.334Z,6.44
2022-12-02T12:36:15.701Z,6.27
2022-12-02T12:38:42.144Z,6.29
2022-12-02T12:41:08.506Z,6.21
2022-12-02T12:43:34.896Z,6.43
2022-12-02T12:46:01.327Z,5.82
2022-12-02T12:48:27.770Z,6.08
2022-12-02T12:50:54.138Z,5.96
2022-12-02T12:53:20.501Z,6.09
2022-12-02T12:55:46.859Z,5.64
2022-12-02T12:58:13.282Z,6.09
2022-12-02T13:00:39.680Z,6.06
2022-12-02T13:03:06.137Z,6.30
2022-12-02T13:05:32.629Z,5.98
2022-12-02T13:07:59.193Z,6.16
2022-12-02T13:10:25.600Z,6.24
2022-12-02T13:12:51.966Z,5.91
2022-12-02T13:15:18.372Z,6.02
2022-12-02T13:17:48.977Z,5.83
2022-12-02T13:20:15.777Z,6.22
2022-12-02T13:22:42.162Z,5.98
2022-12-02T13:25:08.517Z,5.55
2022-12-02T13:27:35.033Z,5.80
2022-12-02T13:30:01.381Z,5.55
2022-12-02T13:32:27.773Z,5.71
2022-12-02T13:34:54.379Z,5.87
2022-12-02T13:37:20.887Z,5.60
2022-12-02T13:39:47.269Z,5.68
2022-12-02T13:42:13.649Z,5.86
2022-12-02T13:44:40.010Z,5.64
2022-12-02T13:47:06.358Z,5.33
2022-12-02T13:49:32.707Z,5.71
2022-12-02T13:51:59.056Z,5.84
2022-12-02T13:54:25.405Z,5.72
2022-12-02T13:56:51.752Z,5.60
2022-12-02T13:59:18.150Z,5.41
2022-12-02T14:01:44.868Z,5.76
2022-12-02T14:04:11.308Z,5.66
2022-12-02T14:06:37.746Z,5.40
2022-12-02T14:09:04.134Z,5.43
2022-12-02T14:11:30.611Z,5.47
2022-12-02T14:13:56.976Z,5.48
2022-12-02T14:16:23.364Z,5.55
2022-12-02T14:18:54.135Z,5.50
2022-12-02T14:21:23.315Z,5.38
2022-12-02T14:23:49.732Z,5.55
2022-12-02T14:26:16.119Z,5.71
2022-12-02T14:28:42.480Z,5.54
2022-12-02T14:31:17.732Z,5.67
2022-12-02T14:34:10.709Z,5.23
2022-12-02T14:36:36.497Z,5.49
2022-12-02T14:39:02.877Z,5.29
2022-12-02T14:41:29.271Z,5.26
2022-12-02T14:43:55.685Z,5.04
2022-12-02T14:46:22.106Z,5.26
2022-12-02T14:48:48.561Z,5.28
2022-12-02T14:51:14.925Z,5.20
2022-12-02T14:53:45.329Z,5.35
2022-12-02T14:56:14.498Z,5.00
2022-12-02T14:58:40.896Z,5.05
2022-12-02T15:01:07.237Z,4.79
2022-12-02T15:03:33.647Z,4.89
2022-12-02T15:06:00.049Z,5.29
2022-12-02T15:08:26.456Z,5.03
2022-12-02T15:10:52.834Z,5.21
2022-12-02T15:13:19.274Z,5.13
2022-12-02T15:15:52.526Z,4.90
2022-12-02T15:18:22.391Z,5.12
2022-12-02T15:20:48.802Z,5.18
2022-12-02T15:23:15.273Z,4.98
2022-12-02T15:25:41.638Z,4.66
2022-12-02T15:28:08.135Z,4.85
2022-12-02T15:30:34.539Z,5.14
2022-12-02T15:33:00.948Z,5.12
2022-12-02T15:35:27.322Z,5.10
2022-12-02T15:37:53.682Z,4.96
2022-12-02T15:40:20.066Z,4.91
2022-12-02T15:42:46.441Z,4.85
2022-12-02T15:45:12.803Z,4.93
2022-12-02T15:47:39.156Z,4.99
2022-12-02T15:50:05.544Z,5.01
2022-12-02T15:52:31.899Z,5.32
2022-12-02T15:54:58.287Z,4.97
2022-12-02T15:57:24.771Z,5.02
2022-12-02T15:59:51.195Z,4.88
2022-12-02T16:02:17.627Z,4.98
2022-12-02T16:04:44.050Z,4.48
2022-12-02T16:07:10.414Z,4.54
2022-12-02T16:09:36.848Z,4.70
2022-12-02T16:12:03.291Z,4.63
2022-12-02T16:14:29.654Z,4.65
2022-12-02T16:16:56.152Z,4.89
2022-12-02T16:19:22.571Z,4.97
2022-12-02T16:21:49.049Z,4.64
2022-12-02T16:24:15.526Z,4.75
2022-12-02T16:26:42.082Z,4.67
2022-12-02T16:29:08.429Z,4.91
2022-12-02T16:31:34.846Z,4.93
2022-12-02T16:34:01.253Z,4.78
2022-12-02T16:36:27.599Z,4.67
2022-12-02T16:38:53.969Z,4.87
2022-12-02T16:41:20.434Z,4.89
2022-12-02T16:43:46.831Z,4.53
2022-12-02T16:46:13.309Z,4.86
2022-12-02T16:48:39.960Z,4.80
2022-12-02T16:51:06.331Z,4.32
2022-12-02T16:53:32.706Z,4.83
2022-12-02T16:55:59.085Z,4.59
2022-12-02T16:58:25.461Z,4.96
2022-12-02T17:00:51.891Z,4.68
2022-12-02T17:03:18.279Z,4.15
2022-12-02T17:05:44.741Z,4.59
2022-12-02T17:08:11.183Z,4.38
2022-12-02T17:10:37.602Z,4.46
2022-12-02T17:13:04.005Z,4.74
2022-12-02T17:15:30.381Z,4.57
2022-12-02T17:17:56.811Z,4.77
2022-12-02T17:20:24.632Z,4.88
2022-12-02T17:22:51.276Z,4.87
2022-12-02T17:25:17.662Z,4.50
2022-12-02T17:27:44.058Z,4.40
2022-12-02T17:30:10.490Z,4.94
2022-12-02T17:32:36.876Z,4.62
2022-12-02T17:35:03.298Z,4.88
2022-12-02T17:37:29.777Z,4.85
2022-12-02T17:39:56.166Z,4.73
2022-12-02T17:42:22.605Z,4.78
2022-12-02T17:44:49.030Z,5.14
2022-12-02T17:47:15.441Z,5.10
2022-12-02T17:49:41.846Z,5.04
2022-12-02T17:52:23.319Z,4.89
2022-12-02T17:54:50.037Z,5.07
2022-12-02T17:57:16.743Z,4.71
2022-12-02T17:59:43.162Z,4.89
2022-12-02T18:02:09.724Z,5.11
2022-12-02T18:04:36.312Z,4.95
2022-12-02T18:07:06.634Z,4.92
2022-12-02T18:09:36.096Z,5.01
2022-12-02T18:12:02.464Z,4.93
2022-12-02T18:14:28.862Z,4.91
2022-12-02T18:16:55.302Z,4.83
2022-12-02T18:19:21.726Z,5.22
2022-12-02T18:21:48.146Z,5.18
2022-12-02T18:24:14.588Z,5.16
2022-12-02T18:26:40.998Z,5.50
2022-12-02T18:29:07.473Z,5.24
2022-12-02T18:31:33.871Z,5.13
2022-12-02T18:34:00.210Z,5.24
2022-12-02T18:36:26.648Z,5.37
2022-12-02T18:38:53.056Z,5.18
2022-12-02T18:41:19.461Z,5.75
2022-12-02T18:43:45.872Z,6.08
2022-12-02T18:46:12.309Z,6.10
2022-12-02T18:48:38.765Z,6.22
2022-12-02T18:51:05.244Z,6.09
2022-12-02T18:53:31.618Z,5.80
2022-12-02T18:55:58.198Z,5.99
2022-12-02T18:58:24.617Z,5.77
2022-12-02T19:00:51.035Z,5.75
2022-12-02T19:03:17.678Z,5.69
2022-12-02T19:05:44.132Z,5.86
2022-12-02T19:08:10.578Z,5.64
2022-12-02T19:10:37.169Z,5.59
2022-12-02T19:13:03.713Z,5.38
2022-12-02T19:15:34.242Z,5.29
2022-12-02T19:18:04.405Z,5.45
2022-12-02T19:20:30.822Z,5.32
2022-12-02T19:22:57.243Z,5.24
2022-12-02T19:25:23.697Z,5.38
2022-12-02T19:27:57.581Z,5.48
2022-12-02T19:30:24.572Z,5.59
2022-12-02T19:32:50.987Z,5.75
2022-12-02T19:35:17.407Z,5.53
2022-12-02T19:37:43.825Z,5.32
2022-12-02T19:40:10.252Z,5.23
2022-12-02T19:42:36.677Z,5.33
2022-12-02T19:45:03.072Z,5.42
2022-12-02T19:47:29.772Z,5.21
2022-12-02T19:49:56.236Z,5.06
2022-12-02T19:52:22.649Z,5.22
2022-12-02T19:54:51.539Z,5.19
2022-12-02T19:57:18.305Z,4.98
2022-12-02T19:59:44.671Z,4.94
2022-12-02T20:02:11.217Z,5.15
2022-12-02T20:04:42.152Z,5.43
2022-12-02T20:07:09.024Z,5.40
2022-12-02T20:09:35.449Z,5.67
2022-12-02T20:12:01.932Z,5.58
2022-12-02T20:14:28.300Z,5.43
2022-12-02T20:16:54.704Z,5.65
2022-12-02T20:19:21.083Z,5.40
2022-12-02T20:21:47.503Z,5.81
2022-12-02T20:24:14.048Z,6.09
2022-12-02T20:26:40.456Z,5.70
2022-12-02T20:29:06.821Z,5.31
2022-12-02T20:31:33.234Z,5.46
2022-12-02T20:33:59.677Z,5.51
2022-12-02T20:36:26.042Z,5.39
2022-12-02T20:38:52.410Z,5.64
2022-12-02T20:41:18.786Z,5.71
2022-12-02T20:43:45.319Z,5.78
2022-12-02T20:46:11.719Z,5.79
2022-12-02T20:48:38.249Z,5.50
2022-12-02T20:51:04.755Z,5.28
2022-12-02T20:53:31.122Z,5.29
2022-12-02T20:55:57.521Z,5.29
2022-12-02T20:58:23.921Z,5.04
2022-12-02T21:00:50.360Z,5.27
2022-12-02T21:03:16.750Z,5.20
2022-12-02T21:05:43.158Z,5.23
2022-12-02T21:08:09.554Z,5.35
2022-12-02T21:10:36.040Z,5.12
2022-12-02T21:13:02.567Z,4.54
2022-12-02T21:15:29.021Z,4.94
2022-12-02T21:17:55.380Z,5.04
2022-12-02T21:20:21.873Z,5.31
2022-12-02T21:22:48.385Z,5.07
2022-12-02T21:25:14.793Z,5.04
2022-12-02T21:27:41.236Z,5.04
2022-12-02T21:30:07.623Z,5.26
2022-12-02T21:32:33.995Z,5.14
2022-12-02T21:35:03.603Z,5.00
2022-12-02T21:37:32.709Z,5.00
2022-12-02T21:39:59.078Z,4.68
2022-12-02T21:42:25.539Z,4.96
2022-12-02T21:44:52.203Z,4.70
2022-12-02T21:47:18.737Z,5.10
2022-12-02T21:49:49.141Z,4.80
2022-12-02T21:52:15.975Z,4.98
2022-12-02T21:54:42.376Z,5.29
2022-12-02T21:57:08.744Z,5.15
2022-12-02T21:59:35.151Z,5.07
2022-12-02T22:02:01.703Z,5.28
2022-12-02T22:04:28.341Z,4.84
2022-12-02T22:06:54.819Z,5.00
2022-12-02T22:09:21.268Z,5.04
2022-12-02T22:11:47.667Z,4.85
2022-12-02T22:14:14.095Z,4.72
2022-12-02T22:16:40.663Z,5.07
2022-12-02T22:19:13.335Z,5.21
2022-12-02T22:21:41.321Z,5.01
2022-12-02T22:24:07.786Z,5.07
2022-12-02T22:26:34.417Z,4.72
2022-12-02T22:29:00.941Z,5.12
2022-12-02T22:31:27.359Z,5.19
2022-12-02T22:33:53.824Z,4.92
2022-12-02T22:36:20.188Z,5.04
2022-12-02T22:38:46.596Z,4.96
2022-12-02T22:41:13.156Z,5.12
2022-12-02T22:43:39.585Z,5.10
2022-12-02T22:46:06.058Z,4.86
2022-12-02T22:48:32.614Z,5.37
2022-12-02T22:50:59.120Z,5.28
2022-12-02T22:53:25.547Z,5.19
2022-12-02T22:55:51.930Z,5.15
2022-12-02T22:58:18.320Z,5.16
2022-12-02T23:00:44.773Z,4.97
2022-12-02T23:03:11.545Z,4.87
2022-12-02T23:05:38.050Z,5.23
2022-12-02T23:08:04.501Z,4.91
2022-12-02T23:10:31.065Z,4.90
2022-12-02T23:12:57.498Z,4.97
2022-12-02T23:15:39.750Z,4.89
2022-12-02T23:18:06.422Z,5.37
2022-12-02T23:20:32.790Z,5.27
2022-12-02T23:22:59.231Z,5.01
2022-12-02T23:25:25.616Z,5.06
2022-12-02T23:27:51.985Z,4.84
2022-12-02T23:30:18.673Z,5.19
2022-12-02T23:32:45.152Z,5.24
2022-12-02T23:35:11.519Z,5.02
2022-12-02T23:37:38.056Z,5.36
2022-12-02T23:40:04.480Z,5.22
2022-12-02T23:42:34.012Z,5.04
2022-12-02T23:45:04.308Z,5.32
2022-12-02T23:47:30.778Z,5.38
2022-12-02T23:49:57.185Z,4.98
2022-12-02T23:52:23.546Z,5.22
2022-12-02T23:54:50.129Z,5.08
2022-12-02T23:57:16.769Z,5.14
2022-12-02T23:59:43.263Z,5.21
